地図

経路データ

SID SEASON NUMBER BASIN SUBBASIN NAME ISO_TIME NATURE LAT LON WMO_WIND WMO_PRES WMO_AGENCY TRACK_TYPE DIST2LAND LANDFALL IFLAG USA_AGENCY USA_ATCF_ID USA_LAT USA_LON USA_RECORD USA_STATUS USA_WIND USA_PRES USA_SSHS USA_R34_NE USA_R34_SE USA_R34_SW USA_R34_NW USA_R50_NE USA_R50_SE USA_R50_SW USA_R50_NW USA_R64_NE USA_R64_SE USA_R64_SW USA_R64_NW USA_POCI USA_ROCI USA_RMW USA_EYE TOKYO_LAT TOKYO_LON TOKYO_GRADE TOKYO_WIND TOKYO_PRES TOKYO_R50_DIR TOKYO_R50_LONG TOKYO_R50_SHORT TOKYO_R30_DIR TOKYO_R30_LONG TOKYO_R30_SHORT TOKYO_LAND CMA_LAT CMA_LON CMA_CAT CMA_WIND CMA_PRES HKO_LAT HKO_LON HKO_CAT HKO_WIND HKO_PRES NEWDELHI_LAT NEWDELHI_LON NEWDELHI_GRADE NEWDELHI_WIND NEWDELHI_PRES NEWDELHI_CI NEWDELHI_DP NEWDELHI_POCI REUNION_LAT REUNION_LON REUNION_TYPE REUNION_WIND REUNION_PRES REUNION_TNUM REUNION_CI REUNION_RMW REUNION_R34_NE REUNION_R34_SE REUNION_R34_SW REUNION_R34_NW REUNION_R50_NE REUNION_R50_SE REUNION_R50_SW REUNION_R50_NW REUNION_R64_NE REUNION_R64_SE REUNION_R64_SW REUNION_R64_NW BOM_LAT BOM_LON BOM_TYPE BOM_WIND BOM_PRES BOM_TNUM BOM_CI BOM_RMW BOM_R34_NE BOM_R34_SE BOM_R34_SW BOM_R34_NW BOM_R50_NE BOM_R50_SE BOM_R50_SW BOM_R50_NW BOM_R64_NE BOM_R64_SE BOM_R64_SW BOM_R64_NW BOM_ROCI BOM_POCI BOM_EYE BOM_POS_METHOD BOM_PRES_METHOD NADI_LAT NADI_LON NADI_CAT NADI_WIND NADI_PRES WELLINGTON_LAT WELLINGTON_LON WELLINGTON_WIND WELLINGTON_PRES DS824_LAT DS824_LON DS824_STAGE DS824_WIND DS824_PRES TD9636_LAT TD9636_LON TD9636_STAGE TD9636_WIND TD9636_PRES TD9635_LAT TD9635_LON TD9635_WIND TD9635_PRES TD9635_ROCI NEUMANN_LAT NEUMANN_LON NEUMANN_CLASS NEUMANN_WIND NEUMANN_PRES MLC_LAT MLC_LON MLC_CLASS MLC_WIND MLC_PRES USA_GUST BOM_GUST BOM_GUST_PER REUNION_GUST REUNION_GUST_PER USA_SEAHGT USA_SEARAD_NE USA_SEARAD_SE USA_SEARAD_SW USA_SEARAD_NW STORM_SPEED STORM_DIR
1964185N21090 1964 40 NI BB NOT_NAMED 1964-07-02 18:00:00 TS 20.7000 89.8000 main 119 108 O________O____ jtwc_io IO031964 20.7000 89.8000 -1 20.7000 89.8000 TC 2 338
1964185N21090 1964 40 NI BB NOT_NAMED 1964-07-02 21:00:00 TS 20.8100 89.7600 main 108 94 P________P____ IO031964 20.8100 89.7600 -1 20.8100 89.7600 TC 2 333
1964185N21090 1964 40 NI BB NOT_NAMED 1964-07-03 00:00:00 TS 20.9000 89.7000 main 94 80 O________O____ jtwc_io IO031964 20.9000 89.7000 -1 20.9000 89.7000 TC 25 2 317
1964185N21090 1964 40 NI BB NOT_NAMED 1964-07-03 03:00:00 TS 20.9622 89.6067 main 80 78 P________PO___ IO031964 20.9575 89.6075 -1 20.9575 89.6075 TC 25 21.0000 89.6000 1 2 300
1964185N21090 1964 40 NI BB NOT_NAMED 1964-07-03 06:00:00 TS 21.0120 89.4929 main 78 63 O________OP___ jtwc_io IO031964 21.0000 89.5000 -1 21.0000 89.5000 TC 25 21.0598 89.4644 1 2 296
1964185N21090 1964 40 NI BB NOT_NAMED 1964-07-03 09:00:00 TS 21.0679 89.3790 main 63 59 P________PP___ IO031964 21.0500 89.3925 -1 21.0500 89.3925 TC 25 21.1155 89.3430 1 2 299
1964185N21090 1964 40 NI BB NOT_NAMED 1964-07-03 12:00:00 TS 21.1212 89.2834 main 59 45 O________OP___ jtwc_io IO031964 21.1000 89.3000 -1 21.1000 89.3000 TC 25 21.1636 89.2501 1 2 305
1964185N21090 1964 40 NI BB NOT_NAMED 1964-07-03 15:00:00 TS 21.1667 89.2283 main 45 45 P________PO___ IO031964 21.1500 89.2425 -1 21.1500 89.2425 TC 25 21.2000 89.2000 1 1 317
1964185N21090 1964 40 NI BB NOT_NAMED 1964-07-03 18:00:00 TS 21.2083 89.1981 main 45 45 O________OP___ jtwc_io IO031964 21.2000 89.2000 -1 21.2000 89.2000 TC 25 21.2249 89.1943 1 1 334
1964185N21090 1964 40 NI BB NOT_NAMED 1964-07-03 21:00:00 TS 21.2462 89.1862 main 45 33 P________PP___ IO031964 21.2424 89.1874 -1 21.2424 89.1874 TC 25 21.2537 89.1838 1 1 316
1964185N21090 1964 40 NI BB NOT_NAMED 1964-07-04 00:00:00 TS 21.3019 89.1021 main 33 22 O________OP___ jtwc_io IO031964 21.3000 89.1000 -1 21.3000 89.1000 TC 25 21.3057 89.1065 1 3 297
1964185N21090 1964 40 NI BB NOT_NAMED 1964-07-04 03:00:00 TS 21.3848 88.8882 main 22 11 P________PO___ IO031964 21.3773 88.8823 -1 21.3773 88.8823 TC 25 21.4000 88.9000 1 6 291
1964185N21090 1964 40 NI BB NOT_NAMED 1964-07-04 06:00:00 TS 21.5152 88.4969 main 11 0 O________OP___ jtwc_io IO031964 21.5000 88.5000 -1 21.5000 88.5000 TC 25 21.5455 88.4908 1 9 289
1964185N21090 1964 40 NI BB NOT_NAMED 1964-07-04 09:00:00 TS 21.6913 87.9467 main 10 0 P________PP___ IO031964 21.6702 87.9449 -1 21.6702 87.9449 TC 25 21.7336 87.9501 1 12 290
1964185N21090 1964 40 NI BB NOT_NAMED 1964-07-04 12:00:00 TS 21.9183 87.3114 main 0 0 O________OP___ jtwc_io IO031964 21.9000 87.3000 -1 21.9000 87.3000 TC 25 21.9548 87.3343 1 13 293
1964185N21090 1964 40 NI BB NOT_NAMED 1964-07-04 15:00:00 TS 22.1949 86.6950 main 0 0 P________PO___ IO031964 22.1924 86.6926 -1 22.1924 86.6926 TC 25 22.2000 86.7000 1 13 297
1964185N21090 1964 40 NI BB NOT_NAMED 1964-07-04 18:00:00 TS 22.4858 86.1067 main 0 0 O________OP___ jtwc_io IO031964 22.5000 86.1000 -1 22.5000 86.1000 TC 25 22.4573 86.1201 1 12 297
1964185N21090 1964 40 NI BB NOT_NAMED 1964-07-04 21:00:00 TS 22.7448 85.5398 main 0 0 P________PP___ IO031964 22.7497 85.5421 -1 22.7497 85.5421 TC 25 22.7348 85.5352 1 12 297
1964185N21090 1964 40 NI BB NOT_NAMED 1964-07-05 00:00:00 TS 23.0066 84.9858 main 0 0 O________OP___ jtwc_io IO031964 23.0000 85.0000 -1 23.0000 85.0000 TC 25 23.0199 84.9576 1 12 298
1964185N21090 1964 40 NI BB NOT_NAMED 1964-07-05 03:00:00 TS 23.2999 84.4283 main 0 0 P________PO___ IO031964 23.2999 84.4425 -1 23.2999 84.4425 TC 25 23.3000 84.4000 1 12 300
1964185N21090 1964 40 NI BB NOT_NAMED 1964-07-05 06:00:00 TS 23.5966 83.8754 main 0 0 O________OP___ jtwc_io IO031964 23.6000 83.9000 -1 23.6000 83.9000 TC 25 23.5898 83.8261 1 11 300
1964185N21090 1964 40 NI BB NOT_NAMED 1964-07-05 09:00:00 TS 23.8709 83.3452 main 0 0 P________PP___ IO031964 23.8724 83.3774 -1 23.8724 83.3774 TC 25 23.8678 83.2808 1 11 299
1964185N21090 1964 40 NI BB NOT_NAMED 1964-07-05 12:00:00 TS 24.1040 82.8650 main 0 0 O________OP___ jtwc_io IO031964 24.1000 82.9000 -1 24.1000 82.9000 TC 25 24.1119 82.7950 1 9 297
1964185N21090 1964 40 NI BB NOT_NAMED 1964-07-05 15:00:00 TS 24.2917 82.4216 main 0 0 P________PO___ IO031964 24.2875 82.4325 -1 24.2875 82.4325 TC 25 24.3000 82.4000 1 7 293
1964185N21090 1964 40 NI BB NOT_NAMED 1964-07-05 18:00:00 TS 24.3869 82.1381 main 0 0 O________OP___ jtwc_io IO031964 24.4000 82.1000 -1 24.4000 82.1000 TC 25 24.3605 82.2142 1 3 287
1964185N21090 1964 40 NI BB NOT_NAMED 1964-07-05 21:00:00 TS 24.3861 82.0734 main 0 0 P________PP___ IO031964 24.3921 82.0571 -1 24.3921 82.0571 TC 25 24.3742 82.1061 1 1 276
1964185N21090 1964 40 NI BB NOT_NAMED 1964-07-06 00:00:00 TS 24.4003 81.9900 main 0 0 O________OP___ jtwc_io IO031964 24.4000 82.0000 -1 24.4000 82.0000 TC 25 24.4008 81.9700 1 4 292
1964185N21090 1964 40 NI BB NOT_NAMED 1964-07-06 03:00:00 TS 24.5314 81.6747 main 0 0 P________PO___ IO031964 24.5471 81.6621 -1 24.5471 81.6621 TC 25 24.5000 81.7000 1 9 296
1964185N21090 1964 40 NI BB NOT_NAMED 1964-07-06 06:00:00 TS 24.7870 81.1017 main 0 0 O________OP___ jtwc_io IO031964 24.8000 81.1000 -1 24.8000 81.1000 TC 25 24.7610 81.1052 1 14 296
1964185N21090 1964 40 NI BB NOT_NAMED 1964-07-06 09:00:00 TS 25.1220 80.3344 main 0 0 P________PP___ IO031964 25.1358 80.3157 -1 25.1358 80.3157 TC 25 25.0942 80.3717 1 16 296
1964185N21090 1964 40 NI BB NOT_NAMED 1964-07-06 12:00:00 TS 25.4849 79.5340 main 0 0 O________OP___ jtwc_io IO031964 25.5000 79.5000 -1 25.5000 79.5000 TC 25 25.4548 79.6020 1 15 298
1964185N21090 1964 40 NI BB NOT_NAMED 1964-07-06 15:00:00 TS 25.8097 78.8931 main 0 0 P________PO___ IO031964 25.8145 78.8896 -1 25.8145 78.8896 TC 25 25.8000 78.9000 1 12 301
1964185N21090 1964 40 NI BB NOT_NAMED 1964-07-06 18:00:00 TS 26.0992 78.3788 main 0 0 O________OP___ jtwc_io IO031964 26.1000 78.4000 -1 26.1000 78.4000 TC 25 26.0980 78.3471 1 10 303
1964185N21090 1964 40 NI AS NOT_NAMED 1964-07-06 21:00:00 TS 26.3564 77.9581 main 0 0 P________PP___ IO031964 26.3578 77.9828 -1 26.3578 77.9828 TC 25 26.3546 77.9252 1 9 305
1964185N21090 1964 40 NI AS NOT_NAMED 1964-07-07 00:00:00 TS 26.5921 77.5955 main 0 0 O________OP___ jtwc_io IO031964 26.6000 77.6000 -1 26.6000 77.6000 TC 25 26.5841 77.5909 1 7 307
1964185N21090 1964 40 NI AS NOT_NAMED 1964-07-07 03:00:00 NR 26.8000 77.3000 main 0 __________O___ IO031964 -1 TC 26.8000 77.3000 1 7 308

IBTrACS Databaseについて

本データベースは、米国NOAAが公開する1842年以降の世界の熱帯低気圧のベストトラックデータアーカイブInternational Best Track Archive for Climate Stewardship (IBTrACS)を、ウェブで閲覧しやすい形式に変換したものです。

最終更新日:2021-11-26